NEW HOGAN LAKE (NHG)

Elevation: 554' · CALAVERAS R basin · Operator: US Army Corps of Engineers

Provisional data, subject to change.
Query executed Thursday at 17:19:25   clock

Select a sensor type for a plot of data.
Note: Reservoir Flows are daily averages.

Earlier

Date RES ELE    STORAGE    RES CHG    TOC STO    ABV TOC    OUTFLOW    INFLOW    FNF    PPT INC    TEMP MN    TEMP MX   
 FEET   AF   AF   AF   AF   CFS   CFS   CFS   INCHES   DEG F   DEG F  
01/12/2016 617.10 47881 260 158996 -111115 10 145 145 0.00 3 17
01/13/2016 617.28 48150 305 159319 -111133 13 153 171 0.21 6 16
01/14/2016 617.45 48391 394 160147 -111755 20 143 143 0.04 3 11
01/15/2016 617.95 49122 731 160181 -111059 20 391 391 0.18 6 14
01/16/2016 618.52 49965 843 160698 -110733 20 448 448 0.20 8 14
01/17/2016 618.97 50637 672 161318 -110681 21 362 362 0.17 8 15
01/18/2016 621.41 54371 3734 159828 -105457 30 1916 1916 1.31 10 16
01/19/2016 623.48 57664 3293 159045 -101381 26 1689 1689 0.76 10 14
01/20/2016 624.73 59709 2045 159984 -100275 17 1051 1051 0.00 9 17
01/21/2016 625.34 60722 1013 161003 -100281 17 533 533 0.01 8 20
01/22/2016 625.82 61526 804 160914 -99388 21 430 430 0.34 11 16
01/23/2016 627.33 64097 2571 160182 -96085 25 1324 1324 0.47 8 14
01/24/2016 628.32 65816 1719 161335 -95519 22 892 892 0.00 7 13
01/25/2016 628.89 66818 1002 162473 -95655 22 531 531 0.00 5 14
01/26/2016 629.29 67527 709 163707 -96180 21 383 383 0.01 4 16
01/27/2016 629.59 68061 534 164952 -96891 21 294 295 0.00 6 16
01/28/2016 629.83 68490 429 166277 -97787 21 240 240 0.00 4 14
01/29/2016 630.08 68939 449 165883 -96906 21 250 250 0.33 11 15
01/30/2016 631.35 71246 2307 164561 -93277 24 1190 1190 0.64 9 14
01/31/2016 632.27 72944 1698 165108 -92127 23 882 882 0.23 7 10
02/01/2016 632.87 74064 1120 166407 -92306 22 592 592 0.00 1 12
02/02/2016 633.28 74836 772 167882 -93046 22 414 414 0.00 3 10
02/03/2016 633.59 75422 586 169334 -93912 22 320 320 0.00 1 13
02/04/2016 633.85 75916 494 170691 -94775 22 275 275 0.00 4 13
02/05/2016 634.07 76335 419 172142 -95807 22 237 237 0.00 4 17
02/06/2016 634.24 76660 325 173619 -96959 22 190 190 0.00 4 17
02/07/2016 634.41 76986 326 175046 -98060 22 191 191 0.01 6 19
02/08/2016 634.54 77235 249 176371 -99136 21 153 153 0.00 6 22
02/09/2016 634.66 77466 231 177947 -100481 19 143 143 0.01 7 22
02/10/2016 634.77 77678 212 179544 -101866 19 131 131 0.00 6 20
02/11/2016 -- -- -- -- -- -- -- -- -- -- --

Later | Latest

Warning! This data is preliminary and subject to revision.

Show NHG Map | Plot NHG Data | 1 Month NHG Data | Real-Time NHG Data | NHG Info